createdAt,value
2023-05-06T00:12:29.948Z,12.20
2023-05-06T00:27:31.639Z,11.07
2023-05-06T00:42:33.400Z,9.50
2023-05-06T00:57:35.579Z,11.87
2023-05-06T01:12:44.185Z,9.80
2023-05-06T01:27:46.038Z,11.07
2023-05-06T01:42:51.575Z,11.70
2023-05-06T01:57:55.006Z,10.17
2023-05-06T02:12:57.139Z,9.67
2023-05-06T02:27:58.789Z,10.47
2023-05-06T02:43:00.525Z,8.27
2023-05-06T02:58:02.423Z,8.73
2023-05-06T03:13:04.133Z,9.23
2023-05-06T03:28:06.136Z,9.50
2023-05-06T03:43:07.962Z,10.17
2023-05-06T03:58:09.707Z,10.33
2023-05-06T04:13:11.448Z,9.13
2023-05-06T04:28:13.128Z,11.50
2023-05-06T04:43:15.039Z,12.40
2023-05-06T04:58:16.836Z,13.13
2023-05-06T05:13:19.320Z,13.43
2023-05-06T05:28:21.002Z,17.53
2023-05-06T05:43:25.961Z,16.73
2023-05-06T05:58:27.654Z,16.10
2023-05-06T06:13:29.647Z,15.00
2023-05-06T06:28:31.624Z,15.47
2023-05-06T06:43:33.381Z,15.13
2023-05-06T06:58:35.059Z,17.13
2023-05-06T07:13:37.062Z,15.57
2023-05-06T07:28:38.721Z,16.27
2023-05-06T07:43:40.392Z,17.87
2023-05-06T07:58:42.094Z,19.07
2023-05-06T08:13:43.813Z,20.93
2023-05-06T08:28:45.586Z,22.27
2023-05-06T08:43:49.146Z,23.50
2023-05-06T08:58:52.139Z,22.60
2023-05-06T09:14:17.242Z,25.30
2023-05-06T09:29:18.885Z,25.07
2023-05-06T09:44:23.320Z,26.03
2023-05-06T09:59:26.112Z,23.07
2023-05-06T10:14:27.949Z,29.87
2023-05-06T10:59:55.596Z,28.63
2023-05-06T11:15:35.848Z,32.23
2023-05-06T11:30:41.671Z,32.33
2023-05-06T11:45:46.403Z,28.27
2023-05-06T12:00:54.600Z,28.70
2023-05-06T12:15:59.072Z,26.53
2023-05-06T12:31:28.724Z,34.60
2023-05-06T12:46:30.662Z,32.23
2023-05-06T13:01:32.540Z,29.27
2023-05-06T13:16:35.402Z,30.40
2023-05-06T13:31:37.204Z,29.63
2023-05-06T13:46:38.962Z,30.47
2023-05-06T14:01:41.576Z,28.70
2023-05-06T14:16:43.728Z,29.83
2023-05-06T14:31:45.615Z,28.53
2023-05-06T14:46:47.398Z,34.73
2023-05-06T15:01:49.052Z,32.40
2023-05-06T15:16:50.790Z,31.43
2023-05-06T15:31:53.028Z,31.20
2023-05-06T15:46:54.690Z,31.53
2023-05-06T16:17:01.329Z,29.87
2023-05-06T16:32:03.478Z,29.13
2023-05-06T16:47:05.875Z,27.53
2023-05-06T17:02:07.699Z,26.63
2023-05-06T17:17:10.302Z,27.80
2023-05-06T17:32:12.042Z,25.03
2023-05-06T17:47:13.732Z,26.27
2023-05-06T18:02:16.095Z,21.67
2023-05-06T18:17:17.752Z,25.43
2023-05-06T18:47:20.996Z,21.60
2023-05-06T19:02:22.956Z,19.37
2023-05-06T19:17:24.659Z,21.73
2023-05-06T19:32:26.428Z,23.03
2023-05-06T19:47:29.692Z,22.87
2023-05-06T20:02:31.722Z,22.00
2023-05-06T20:17:34.714Z,22.00
2023-05-06T20:32:37.455Z,19.23
2023-05-06T20:47:39.190Z,18.37
2023-05-06T21:02:42.253Z,20.77
2023-05-06T21:17:44.213Z,22.73
2023-05-06T21:32:46.562Z,18.30
2023-05-06T21:47:49.625Z,21.27
2023-05-06T22:02:53.110Z,21.97
2023-05-06T22:17:55.288Z,20.53
2023-05-06T22:32:57.738Z,20.53
2023-05-06T22:47:59.390Z,17.27
2023-05-06T23:03:01.093Z,21.43
2023-05-06T23:18:02.923Z,20.10
2023-05-06T23:33:04.652Z,15.43
2023-05-06T23:48:06.621Z,19.13
